createdAt,value
2022-10-20T00:02:02.915Z,101751.03
2022-10-20T00:04:30.694Z,101747.63
2022-10-20T00:06:58.378Z,101753.91
2022-10-20T00:09:26.122Z,101740.88
2022-10-20T00:11:55.185Z,101741.84
2022-10-20T00:14:22.883Z,101740.31
2022-10-20T00:16:50.632Z,101729.47
2022-10-20T00:19:18.504Z,101737.94
2022-10-20T00:21:46.209Z,101731.00
2022-10-20T00:24:13.943Z,101717.16
2022-10-20T00:26:41.712Z,101712.44
2022-10-20T00:29:11.050Z,101708.72
2022-10-20T00:31:38.801Z,101697.59
2022-10-20T00:34:06.459Z,101699.31
2022-10-20T00:36:34.160Z,101695.38
2022-10-20T00:39:04.632Z,101682.38
2022-10-20T00:41:33.438Z,101682.38
2022-10-20T00:44:02.926Z,101680.13
2022-10-20T00:46:38.342Z,101670.31
2022-10-20T00:49:13.706Z,101679.72
2022-10-20T00:51:41.536Z,101668.63
2022-10-20T00:54:12.537Z,101682.13
2022-10-20T00:56:44.128Z,101675.19
2022-10-20T00:59:15.374Z,101668.03
2022-10-20T01:04:19.960Z,101681.97
2022-10-20T01:06:47.693Z,101671.53
2022-10-20T01:09:15.517Z,101667.13
2022-10-20T01:11:50.349Z,101663.59
2022-10-20T01:14:36.206Z,101660.22
2022-10-20T01:17:14.640Z,101657.84
2022-10-20T01:20:07.595Z,101650.91
2022-10-20T01:25:57.607Z,101637.94
2022-10-20T01:28:32.405Z,101641.97
2022-10-20T01:31:05.094Z,101643.78
2022-10-20T01:33:43.711Z,101639.28
2022-10-20T01:36:16.426Z,101629.66
2022-10-20T01:38:48.343Z,101626.97
2022-10-20T01:41:23.935Z,101637.94
2022-10-20T01:43:54.008Z,101633.75
2022-10-20T01:46:25.909Z,101635.44
2022-10-20T01:48:53.892Z,101628.69
2022-10-20T01:51:21.659Z,101626.59
2022-10-20T01:53:49.306Z,101625.94
2022-10-20T01:56:21.007Z,101620.03
2022-10-20T01:59:17.629Z,101623.50
2022-10-20T02:02:01.155Z,101611.84
2022-10-20T02:04:39.052Z,101610.16
2022-10-20T02:07:13.131Z,101601.88
2022-10-20T02:09:44.425Z,101609.25
2022-10-20T02:12:19.610Z,101609.25
2022-10-20T02:14:49.422Z,101611.16
2022-10-20T02:17:19.915Z,101606.09
2022-10-20T02:19:51.284Z,101599.38
2022-10-20T02:22:20.820Z,101599.50
2022-10-20T02:24:49.460Z,101600.34
2022-10-20T02:27:20.035Z,101587.28
2022-10-20T02:29:53.531Z,101579.47
2022-10-20T02:32:22.779Z,101584.28
2022-10-20T02:34:50.482Z,101577.28
2022-10-20T02:37:18.276Z,101569.56
2022-10-20T02:39:45.985Z,101566.69
2022-10-20T02:42:13.852Z,101567.75
2022-10-20T02:44:41.757Z,101562.38
2022-10-20T02:47:10.762Z,101562.13
2022-10-20T02:49:38.383Z,101552.75
2022-10-20T02:52:06.141Z,101548.69
2022-10-20T02:54:33.882Z,101539.84
2022-10-20T02:57:01.698Z,101535.28
2022-10-20T02:59:29.430Z,101540.75
2022-10-20T03:01:57.224Z,101534.78
2022-10-20T03:06:59.423Z,101529.19
2022-10-20T03:09:27.140Z,101521.25
2022-10-20T03:11:54.781Z,101530.56
2022-10-20T03:14:22.506Z,101539.25
2022-10-20T03:16:50.207Z,101525.22
2022-10-20T03:19:18.082Z,101534.09
2022-10-20T03:21:48.773Z,101530.00
2022-10-20T03:24:16.646Z,101519.78
2022-10-20T03:26:44.254Z,101506.03
2022-10-20T03:29:11.950Z,101508.78
2022-10-20T03:31:39.669Z,101513.00
2022-10-20T03:34:07.388Z,101506.34
2022-10-20T03:36:35.361Z,101509.78
2022-10-20T03:39:04.445Z,101505.75
2022-10-20T03:41:32.142Z,101499.72
2022-10-20T03:43:59.801Z,101498.41
2022-10-20T03:46:27.451Z,101500.63
2022-10-20T03:48:55.228Z,101495.25
2022-10-20T03:51:22.907Z,101501.66
2022-10-20T03:53:50.543Z,101498.75
2022-10-20T03:56:21.401Z,101489.19
2022-10-20T03:58:49.454Z,101486.69
2022-10-20T04:01:19.088Z,101486.84
2022-10-20T04:03:46.938Z,101480.56
2022-10-20T04:06:16.787Z,101488.00
2022-10-20T04:08:44.581Z,101483.78
2022-10-20T04:11:12.521Z,101482.47
2022-10-20T04:13:41.613Z,101477.69
2022-10-20T04:16:09.487Z,101475.69
2022-10-20T04:18:37.116Z,101463.59
2022-10-20T04:21:05.008Z,101461.53
2022-10-20T04:23:32.696Z,101455.81
2022-10-20T04:26:00.365Z,101454.75
2022-10-20T04:28:28.093Z,101446.13
2022-10-20T04:31:01.087Z,101438.91
2022-10-20T04:33:28.751Z,101429.94
2022-10-20T04:35:58.966Z,101430.91
2022-10-20T04:38:27.140Z,101421.34
2022-10-20T04:40:58.042Z,101419.97
2022-10-20T04:43:28.697Z,101411.84
2022-10-20T04:46:03.835Z,101417.16
2022-10-20T04:48:35.049Z,101402.34
2022-10-20T04:51:05.019Z,101399.22
2022-10-20T04:53:32.674Z,101407.94
2022-10-20T04:56:00.483Z,101408.19
2022-10-20T04:58:28.648Z,101406.63
2022-10-20T05:01:01.619Z,101404.63
2022-10-20T05:03:29.405Z,101400.41
2022-10-20T05:06:09.329Z,101391.63
2022-10-20T05:08:37.095Z,101394.34
2022-10-20T05:11:04.822Z,101385.06
2022-10-20T05:13:32.485Z,101374.75
2022-10-20T05:16:01.475Z,101374.13
2022-10-20T05:18:29.454Z,101381.00
2022-10-20T05:21:08.550Z,101381.03
2022-10-20T05:23:37.378Z,101374.47
2022-10-20T05:26:06.427Z,101362.72
2022-10-20T05:28:34.401Z,101370.16
2022-10-20T05:31:04.925Z,101377.09
2022-10-20T05:33:32.627Z,101385.84
2022-10-20T05:36:00.365Z,101382.31
2022-10-20T05:38:28.317Z,101374.22
2022-10-20T05:40:55.951Z,101369.84
2022-10-20T05:43:23.877Z,101369.56
2022-10-20T05:45:54.971Z,101361.75
2022-10-20T05:48:23.962Z,101354.47
2022-10-20T05:50:51.597Z,101358.72
2022-10-20T05:53:19.682Z,101349.63
2022-10-20T05:55:47.550Z,101356.53
2022-10-20T05:58:17.592Z,101362.59
2022-10-20T06:00:52.702Z,101366.44
2022-10-20T06:03:23.671Z,101372.16
2022-10-20T06:05:59.243Z,101365.19
2022-10-20T06:08:27.060Z,101371.75
2022-10-20T06:10:54.749Z,101364.53
2022-10-20T06:13:22.381Z,101365.16
2022-10-20T06:15:50.018Z,101350.81
2022-10-20T06:18:17.660Z,101348.75
2022-10-20T06:20:45.278Z,101342.59
2022-10-20T06:23:14.308Z,101354.63
2022-10-20T06:25:41.951Z,101355.63
2022-10-20T06:28:09.558Z,101352.09
2022-10-20T06:30:37.190Z,101345.47
2022-10-20T06:33:04.940Z,101345.47
2022-10-20T06:35:32.812Z,101361.72
2022-10-20T06:38:00.452Z,101360.53
2022-10-20T06:40:29.753Z,101357.16
2022-10-20T06:42:57.756Z,101348.25
2022-10-20T06:45:25.500Z,101362.41
2022-10-20T06:47:53.327Z,101355.97
2022-10-20T06:50:21.172Z,101356.72
2022-10-20T06:52:48.874Z,101352.34
2022-10-20T06:55:16.666Z,101345.41
2022-10-20T06:57:45.644Z,101346.41
2022-10-20T07:00:14.039Z,101350.94
2022-10-20T07:02:41.776Z,101333.91
2022-10-20T07:05:09.914Z,101336.47
2022-10-20T07:07:37.542Z,101334.75
2022-10-20T07:10:05.507Z,101325.63
2022-10-20T07:12:33.129Z,101328.00
2022-10-20T07:15:02.113Z,101322.41
2022-10-20T07:17:29.758Z,101311.47
2022-10-20T07:19:57.372Z,101311.75
2022-10-20T07:22:25.063Z,101300.34
2022-10-20T07:24:53.106Z,101298.69
2022-10-20T07:27:20.740Z,101289.63
2022-10-20T07:29:48.371Z,101293.44
2022-10-20T07:32:17.348Z,101290.13
2022-10-20T07:34:45.249Z,101293.84
2022-10-20T07:37:12.859Z,101288.09
2022-10-20T07:39:40.550Z,101285.94
2022-10-20T07:42:08.202Z,101283.88
2022-10-20T07:44:36.116Z,101277.34
2022-10-20T07:47:03.726Z,101279.72
2022-10-20T07:49:47.929Z,101280.91
2022-10-20T07:52:16.483Z,101283.59
2022-10-20T07:54:44.419Z,101281.97
2022-10-20T07:57:12.449Z,101273.88
2022-10-20T07:59:40.177Z,101270.47
2022-10-20T08:02:08.322Z,101277.09
2022-10-20T08:04:37.428Z,101275.25
2022-10-20T08:07:05.191Z,101260.75
2022-10-20T08:09:33.752Z,101265.28
2022-10-20T08:12:01.710Z,101257.03
2022-10-20T08:14:31.920Z,101266.16
2022-10-20T08:17:02.264Z,101273.06
2022-10-20T08:19:33.413Z,101259.06
2022-10-20T08:22:02.887Z,101267.84
2022-10-20T08:24:31.180Z,101261.25
2022-10-20T08:26:59.158Z,101264.78
2022-10-20T08:29:26.858Z,101264.09
2022-10-20T08:31:54.486Z,101262.06
2022-10-20T08:34:22.180Z,101257.69
2022-10-20T08:36:49.807Z,101266.28
2022-10-20T08:39:19.520Z,101259.34
2022-10-20T08:44:40.721Z,101243.13
2022-10-20T08:47:21.938Z,101241.78
2022-10-20T08:49:49.615Z,101236.03
2022-10-20T08:52:19.391Z,101236.16
2022-10-20T08:54:51.261Z,101223.19
2022-10-20T08:57:25.174Z,101215.41
2022-10-20T08:59:54.918Z,101223.78
2022-10-20T09:02:23.484Z,101229.38
2022-10-20T09:04:54.404Z,101224.47
2022-10-20T09:07:27.979Z,101224.44
2022-10-20T09:10:05.668Z,101223.59
2022-10-20T09:12:34.455Z,101228.78
2022-10-20T09:15:02.701Z,101219.66
2022-10-20T09:17:30.659Z,101214.75
2022-10-20T09:20:00.350Z,101207.66
2022-10-20T09:22:34.723Z,101195.09
2022-10-20T09:25:05.742Z,101202.09
2022-10-20T09:27:37.049Z,101201.06
2022-10-20T09:30:16.555Z,101203.94
2022-10-20T09:32:47.229Z,101200.78
2022-10-20T09:35:24.947Z,101195.50
2022-10-20T09:37:57.272Z,101196.75
2022-10-20T09:40:27.660Z,101194.09
2022-10-20T09:42:58.065Z,101192.88
2022-10-20T09:45:29.486Z,101193.47
2022-10-20T09:48:02.221Z,101191.66
2022-10-20T09:50:33.656Z,101186.91
2022-10-20T09:53:05.378Z,101188.41
2022-10-20T09:55:37.609Z,101178.09
2022-10-20T09:58:06.820Z,101166.03
2022-10-20T10:00:38.198Z,101171.19
2022-10-20T10:03:21.081Z,101153.00
2022-10-20T10:05:51.206Z,101153.25
2022-10-20T10:08:20.234Z,101164.94
2022-10-20T10:11:00.820Z,101160.28
2022-10-20T10:13:31.479Z,101153.56
2022-10-20T10:16:06.243Z,101142.53
2022-10-20T10:18:35.291Z,101129.19
2022-10-20T10:21:06.523Z,101124.97
2022-10-20T10:23:40.895Z,101125.44
2022-10-20T10:26:45.612Z,101120.84
2022-10-20T10:29:24.357Z,101121.97
2022-10-20T10:31:57.627Z,101113.22
2022-10-20T10:34:38.518Z,101101.63
2022-10-20T10:37:06.672Z,101098.72
2022-10-20T10:39:36.889Z,101103.66
2022-10-20T10:42:37.404Z,101093.50
2022-10-20T10:45:18.193Z,101077.31
2022-10-20T10:48:18.820Z,101080.91
2022-10-20T10:50:55.189Z,101072.41
2022-10-20T10:53:33.125Z,101069.31
2022-10-20T10:58:47.792Z,101061.97
2022-10-20T11:01:40.919Z,101068.19
2022-10-20T11:04:39.063Z,101059.31
2022-10-20T11:07:12.669Z,101059.59
2022-10-20T11:09:46.111Z,101038.66
2022-10-20T11:12:28.968Z,101038.09
2022-10-20T11:15:13.361Z,101029.28
2022-10-20T11:17:54.055Z,101017.66
2022-10-20T11:20:34.735Z,101016.69
2022-10-20T11:23:59.536Z,101026.34
2022-10-20T11:26:33.637Z,101018.59
2022-10-20T11:29:03.978Z,101023.06
2022-10-20T11:31:40.790Z,101014.16
2022-10-20T11:34:15.273Z,101010.00
2022-10-20T11:36:47.515Z,101012.16
2022-10-20T11:39:23.405Z,101016.97
2022-10-20T11:41:57.331Z,101024.53
2022-10-20T11:44:31.856Z,101019.00
2022-10-20T11:47:04.459Z,101013.47
2022-10-20T11:49:34.072Z,101011.41
2022-10-20T11:52:41.417Z,101005.22
2022-10-20T11:55:36.727Z,100986.75
2022-10-20T11:58:24.190Z,100977.84
2022-10-20T12:01:02.854Z,100967.41
2022-10-20T12:03:48.804Z,100956.59
2022-10-20T12:06:46.701Z,100957.88
2022-10-20T12:09:33.878Z,100949.69
2022-10-20T12:12:04.547Z,100957.59
2022-10-20T12:14:37.618Z,100963.63
2022-10-20T12:17:20.442Z,100966.97
2022-10-20T12:19:52.494Z,100948.22
2022-10-20T12:22:43.182Z,100952.03
2022-10-20T12:25:35.299Z,100957.31
2022-10-20T12:28:34.620Z,100955.84
2022-10-20T12:31:03.434Z,100961.72
2022-10-20T12:33:43.269Z,100944.34
2022-10-20T12:36:29.307Z,100934.97
2022-10-20T12:39:14.253Z,100930.38
2022-10-20T12:41:46.674Z,100922.84
2022-10-20T12:47:06.544Z,100912.59
2022-10-20T12:49:37.327Z,100918.47
2022-10-20T12:52:17.062Z,100918.88
2022-10-20T12:54:48.623Z,100912.38
2022-10-20T12:57:29.208Z,100921.16
2022-10-20T12:59:57.081Z,100919.28
2022-10-20T13:02:46.867Z,100923.25
2022-10-20T13:05:48.660Z,100918.84
2022-10-20T13:08:29.383Z,100936.03
2022-10-20T13:10:58.926Z,100929.72
2022-10-20T13:13:50.523Z,100921.56
2022-10-20T13:16:23.766Z,100912.16
2022-10-20T13:18:54.381Z,100905.91
2022-10-20T13:21:28.979Z,100895.66
2022-10-20T13:24:21.989Z,100891.06
2022-10-20T13:26:54.235Z,100880.59
2022-10-20T13:29:26.434Z,100885.41
2022-10-20T13:34:48.118Z,100878.94
2022-10-20T13:37:30.264Z,100884.78
2022-10-20T13:40:11.057Z,100894.19
2022-10-20T13:42:48.774Z,100899.22
2022-10-20T13:45:28.183Z,100888.97
2022-10-20T13:48:10.009Z,100882.28
2022-10-20T13:50:41.402Z,100882.69
2022-10-20T13:53:20.555Z,100892.75
2022-10-20T13:56:00.307Z,100892.75
2022-10-20T13:58:28.356Z,100887.09
2022-10-20T14:01:02.465Z,100868.28
2022-10-20T14:03:32.323Z,100865.97
2022-10-20T14:06:00.228Z,100866.81
2022-10-20T14:08:28.057Z,100869.53
2022-10-20T14:11:00.428Z,100862.63
2022-10-20T14:13:31.499Z,100854.06
2022-10-20T14:16:00.898Z,100855.09
2022-10-20T14:18:31.561Z,100841.28
2022-10-20T14:21:02.608Z,100840.25
2022-10-20T14:23:35.894Z,100848.41
2022-10-20T14:26:07.490Z,100837.13
2022-10-20T14:28:36.977Z,100838.38
2022-10-20T14:31:05.480Z,100841.09
2022-10-20T14:33:36.018Z,100841.53
2022-10-20T14:36:05.280Z,100834.63
2022-10-20T14:38:37.811Z,100847.59
2022-10-20T14:41:09.429Z,100861.78
2022-10-20T14:43:41.290Z,100872.25
2022-10-20T14:46:12.832Z,100878.53
2022-10-20T14:48:44.498Z,100878.72
2022-10-20T14:51:34.768Z,100871.84
2022-10-20T14:54:26.321Z,100854.88
2022-10-20T14:56:57.046Z,100855.09
2022-10-20T14:59:26.916Z,100839.84
2022-10-20T15:02:02.702Z,100832.53
2022-10-20T15:04:33.473Z,100837.56
2022-10-20T15:07:07.314Z,100845.50
2022-10-20T15:09:40.741Z,100854.69
2022-10-20T15:12:17.075Z,100859.28
2022-10-20T15:14:47.902Z,100856.78
2022-10-20T15:17:35.685Z,100852.38
2022-10-20T15:20:37.267Z,100847.16
2022-10-20T15:23:07.091Z,100837.56
2022-10-20T15:25:42.493Z,100833.59
2022-10-20T15:28:23.211Z,100839.03
2022-10-20T15:30:51.166Z,100826.03
2022-10-20T15:33:18.872Z,100821.47
2022-10-20T15:35:47.620Z,100817.06
2022-10-20T15:38:15.865Z,100830.44
2022-10-20T15:40:44.362Z,100830.44
2022-10-20T15:43:13.858Z,100831.91
2022-10-20T15:45:45.945Z,100816.03
2022-10-20T15:48:13.608Z,100806.81
2022-10-20T15:50:41.632Z,100803.91
2022-10-20T15:53:11.806Z,100797.22
2022-10-20T15:55:42.150Z,100812.69
2022-10-20T15:58:09.834Z,100794.69
2022-10-20T16:00:37.883Z,100792.84
2022-10-20T16:03:07.584Z,100785.31
2022-10-20T16:05:35.334Z,100781.75
2022-10-20T16:08:03.055Z,100783.44
2022-10-20T16:10:30.726Z,100785.72
2022-10-20T16:12:58.619Z,100779.88
2022-10-20T16:15:30.193Z,100783.22
2022-10-20T16:17:58.970Z,100762.53
2022-10-20T16:20:27.984Z,100777.78
2022-10-20T16:22:55.683Z,100779.47
2022-10-20T16:25:23.435Z,100773.81
2022-10-20T16:27:51.249Z,100759.19
2022-10-20T16:30:19.096Z,100770.47
2022-10-20T16:32:46.750Z,100754.81
2022-10-20T16:35:14.393Z,100760.84
2022-10-20T16:37:44.199Z,100764.81
2022-10-20T16:40:11.890Z,100779.25
2022-10-20T16:42:39.705Z,100780.72
2022-10-20T16:45:08.500Z,100779.88
2022-10-20T16:47:36.618Z,100782.78
2022-10-20T16:50:05.222Z,100784.06
2022-10-20T16:52:33.111Z,100783.66
2022-10-20T16:55:09.809Z,100775.50
2022-10-20T16:57:40.977Z,100774.03
2022-10-20T17:00:10.600Z,100778.19
2022-10-20T17:02:40.530Z,100781.97
2022-10-20T17:05:09.969Z,100778.19
2022-10-20T17:07:38.571Z,100778.19
2022-10-20T17:10:08.909Z,100771.94
2022-10-20T17:12:37.283Z,100770.69
2022-10-20T17:15:06.300Z,100764.00
2022-10-20T17:17:35.427Z,100769.22
2022-10-20T17:20:04.367Z,100767.34
2022-10-20T17:22:33.411Z,100755.03
2022-10-20T17:25:01.727Z,100752.94
2022-10-20T17:27:35.286Z,100751.25
2022-10-20T17:30:12.239Z,100745.81
2022-10-20T17:32:43.124Z,100750.66
2022-10-20T17:35:13.057Z,100747.28
2022-10-20T17:37:42.465Z,100748.97
2022-10-20T17:40:35.296Z,100741.03
2022-10-20T17:43:28.652Z,100743.75
2022-10-20T17:46:21.488Z,100745.84
2022-10-20T17:53:22.762Z,100734.53
2022-10-20T17:56:41.724Z,100727.25
2022-10-20T17:59:22.752Z,100733.50
2022-10-20T18:01:50.823Z,100731.63
2022-10-20T18:04:20.156Z,100729.34
2022-10-20T18:06:55.744Z,100717.88
2022-10-20T18:09:26.870Z,100711.59
2022-10-20T18:11:56.087Z,100705.75
2022-10-20T18:14:27.637Z,100711.16
2022-10-20T18:16:56.471Z,100706.38
2022-10-20T18:19:25.609Z,100686.53
2022-10-20T18:21:55.555Z,100681.28
2022-10-20T18:24:25.030Z,100688.41
2022-10-20T18:26:54.347Z,100685.28
2022-10-20T18:29:27.270Z,100675.69
2022-10-20T18:31:56.504Z,100683.81
2022-10-20T18:34:25.502Z,100691.34
2022-10-20T18:37:04.531Z,100684.22
2022-10-20T18:39:32.849Z,100683.41
2022-10-20T18:42:01.066Z,100670.03
2022-10-20T18:44:30.998Z,100656.03
2022-10-20T18:46:59.798Z,100660.00
2022-10-20T18:49:27.944Z,100666.28
2022-10-20T18:51:55.792Z,100663.59
2022-10-20T18:54:24.643Z,100667.13
2022-10-20T18:56:52.819Z,100681.72
2022-10-20T18:59:23.147Z,100673.81
2022-10-20T19:01:52.742Z,100681.31
2022-10-20T19:04:21.188Z,100668.59
2022-10-20T19:06:50.146Z,100673.38
2022-10-20T19:09:19.613Z,100674.63
2022-10-20T19:14:21.826Z,100668.97
2022-10-20T19:16:50.299Z,100667.94
2022-10-20T19:19:19.734Z,100667.13
2022-10-20T19:21:47.818Z,100668.59
2022-10-20T19:24:17.499Z,100664.63
2022-10-20T19:26:57.207Z,100651.25
2022-10-20T19:29:34.086Z,100646.44
2022-10-20T19:32:04.341Z,100655.00
2022-10-20T19:34:36.172Z,100644.16
2022-10-20T19:37:05.568Z,100646.00
2022-10-20T19:39:35.819Z,100642.28
2022-10-20T19:42:05.398Z,100640.41
2022-10-20T19:44:33.622Z,100637.69
2022-10-20T19:47:02.071Z,100641.44
2022-10-20T19:49:30.567Z,100647.06
2022-10-20T19:52:01.143Z,100637.88
2022-10-20T19:54:29.842Z,100635.38
2022-10-20T19:56:58.125Z,100631.00
2022-10-20T19:59:26.547Z,100644.34
2022-10-20T20:01:54.628Z,100631.00
2022-10-20T20:04:25.655Z,100641.03
2022-10-20T20:07:01.025Z,100628.28
2022-10-20T20:09:32.366Z,100636.81
2022-10-20T20:12:01.118Z,100650.63
2022-10-20T20:14:32.097Z,100645.19
2022-10-20T20:17:02.143Z,100653.34
2022-10-20T20:19:34.592Z,100639.56
2022-10-20T20:22:04.758Z,100634.13
2022-10-20T20:24:35.134Z,100633.91
2022-10-20T20:27:03.078Z,100625.56
2022-10-20T20:29:31.253Z,100627.25
2022-10-20T20:31:59.204Z,100623.91
2022-10-20T20:34:27.408Z,100616.59
2022-10-20T20:37:02.234Z,100599.91
2022-10-20T20:39:34.223Z,100608.88
2022-10-20T20:42:06.108Z,100598.03
2022-10-20T20:44:35.671Z,100596.78
2022-10-20T20:47:06.465Z,100592.81
2022-10-20T20:49:40.519Z,100589.88
2022-10-20T20:52:14.420Z,100587.59
2022-10-20T20:54:43.707Z,100585.25
2022-10-20T20:57:12.712Z,100583.19
2022-10-20T20:59:40.375Z,100586.72
2022-10-20T21:02:08.034Z,100580.06
2022-10-20T21:04:36.854Z,100581.31
2022-10-20T21:07:04.551Z,100585.28
2022-10-20T21:09:32.431Z,100585.72
2022-10-20T21:12:00.111Z,100577.38
2022-10-20T21:14:29.256Z,100589.47
2022-10-20T21:16:56.931Z,100583.22
2022-10-20T21:19:24.561Z,100585.50
2022-10-20T21:21:57.265Z,100588.63
2022-10-20T21:24:25.992Z,100585.06
2022-10-20T21:26:53.845Z,100583.59
2022-10-20T21:29:21.512Z,100577.34
2022-10-20T21:31:50.542Z,100580.47
2022-10-20T21:34:18.146Z,100563.34
2022-10-20T21:36:45.793Z,100567.97
2022-10-20T21:39:16.347Z,100564.44
2022-10-20T21:41:45.635Z,100567.53
2022-10-20T21:44:14.501Z,100555.22
2022-10-20T21:46:49.162Z,100567.16
2022-10-20T21:49:20.509Z,100580.72
2022-10-20T21:51:52.177Z,100590.09
2022-10-20T21:56:55.127Z,100582.78
2022-10-20T21:59:24.886Z,100586.13
2022-10-20T22:01:54.319Z,100587.38
2022-10-20T22:04:25.460Z,100574.84
2022-10-20T22:06:54.857Z,100573.16
2022-10-20T22:09:23.670Z,100570.22
2022-10-20T22:11:52.878Z,100567.72
2022-10-20T22:14:20.558Z,100569.63
2022-10-20T22:16:48.651Z,100584.22
2022-10-20T22:19:19.162Z,100580.25
2022-10-20T22:21:49.909Z,100586.31
2022-10-20T22:24:18.520Z,100587.56
2022-10-20T22:26:46.963Z,100586.31
2022-10-20T22:29:14.635Z,100576.06
2022-10-20T22:31:42.443Z,100561.66
2022-10-20T22:34:10.847Z,100561.66
2022-10-20T22:36:39.324Z,100566.03
2022-10-20T22:39:09.160Z,100566.88
2022-10-20T22:41:36.926Z,100569.59
2022-10-20T22:44:04.940Z,100578.56
2022-10-20T22:46:32.576Z,100576.25
2022-10-20T22:49:00.321Z,100572.50
2022-10-20T22:51:28.110Z,100570.41
2022-10-20T22:53:55.821Z,100571.47
2022-10-20T22:56:24.831Z,100569.38
2022-10-20T22:58:53.506Z,100567.69
2022-10-20T23:01:23.601Z,100566.66
2022-10-20T23:03:52.374Z,100571.84
2022-10-20T23:06:23.738Z,100569.13
2022-10-20T23:08:53.735Z,100576.47
2022-10-20T23:11:22.446Z,100579.19
2022-10-20T23:13:51.952Z,100572.94
2022-10-20T23:16:20.071Z,100573.53
2022-10-20T23:18:47.990Z,100576.88
2022-10-20T23:21:16.088Z,100581.47
2022-10-20T23:23:44.400Z,100574.78
2022-10-20T23:26:12.921Z,100571.03
2022-10-20T23:28:40.557Z,100572.28
2022-10-20T23:31:12.080Z,100570.38
2022-10-20T23:33:40.872Z,100568.53
2022-10-20T23:36:09.432Z,100556.41
2022-10-20T23:38:37.356Z,100548.25
2022-10-20T23:41:05.552Z,100553.91
2022-10-20T23:43:33.652Z,100552.22
2022-10-20T23:46:01.719Z,100548.06
2022-10-20T23:48:31.021Z,100541.38
2022-10-20T23:50:59.313Z,100541.97
2022-10-20T23:53:27.704Z,100543.88
2022-10-20T23:55:55.415Z,100550.75
2022-10-20T23:58:23.623Z,100539.25
